createdAt,value
2018-09-09T00:00:43.472Z,87.63
2018-09-09T00:03:12.766Z,87.57
2018-09-09T00:05:42.494Z,87.05
2018-09-09T00:08:11.750Z,87.09
2018-09-09T00:10:40.927Z,87.63
2018-09-09T00:13:10.374Z,88.38
2018-09-09T00:15:40.252Z,88.99
2018-09-09T00:18:09.746Z,88.38
2018-09-09T00:20:38.942Z,88.13
2018-09-09T00:23:08.199Z,88.22
2018-09-09T00:25:37.572Z,88.93
2018-09-09T00:28:06.678Z,89.42
2018-09-09T00:30:36.494Z,90.14
2018-09-09T00:33:06.051Z,90.00
2018-09-09T00:35:35.394Z,90.71
2018-09-09T00:38:04.591Z,91.73
2018-09-09T00:40:34.302Z,91.49
2018-09-09T00:43:03.430Z,92.19
2018-09-09T00:45:32.489Z,93.30
2018-09-09T00:48:02.210Z,93.39
2018-09-09T00:50:36.520Z,93.52
2018-09-09T00:53:12.204Z,93.51
2018-09-09T00:55:41.377Z,93.11
2018-09-09T00:58:10.484Z,93.64
2018-09-09T01:00:45.055Z,93.84
2018-09-09T01:03:14.495Z,93.81
2018-09-09T01:05:43.955Z,93.91
2018-09-09T01:08:13.424Z,94.44
2018-09-09T01:10:43.532Z,94.19
2018-09-09T01:13:13.017Z,94.29
2018-09-09T01:15:42.604Z,93.54
2018-09-09T01:18:12.480Z,93.32
2018-09-09T01:20:41.802Z,93.24
2018-09-09T01:23:11.742Z,94.55
2018-09-09T01:25:41.532Z,94.69
2018-09-09T01:28:10.911Z,94.28
2018-09-09T01:30:40.901Z,94.24
2018-09-09T01:33:10.083Z,94.00
2018-09-09T01:35:39.203Z,94.16
2018-09-09T01:38:08.314Z,93.40
2018-09-09T01:40:37.486Z,93.53
2018-09-09T01:43:06.844Z,94.08
2018-09-09T01:45:36.035Z,94.07
2018-09-09T01:48:05.307Z,94.03
2018-09-09T01:50:34.374Z,92.83
2018-09-09T01:53:04.614Z,92.75
2018-09-09T01:55:34.035Z,92.59
2018-09-09T01:58:03.086Z,93.45
2018-09-09T02:00:32.619Z,93.58
2018-09-09T02:03:01.694Z,92.88
2018-09-09T02:05:31.392Z,93.57
2018-09-09T02:08:00.502Z,93.49
2018-09-09T02:10:29.594Z,93.75
2018-09-09T02:12:58.681Z,93.53
2018-09-09T02:15:27.635Z,93.93
2018-09-09T02:17:56.894Z,94.26
2018-09-09T02:20:26.229Z,93.84
2018-09-09T02:22:55.915Z,93.97
2018-09-09T02:25:25.583Z,94.52
2018-09-09T02:27:55.102Z,94.89
2018-09-09T02:30:24.978Z,94.75
2018-09-09T02:32:54.312Z,95.06
2018-09-09T02:35:23.847Z,95.35
2018-09-09T02:37:53.530Z,94.80
2018-09-09T02:40:22.624Z,94.59
2018-09-09T02:42:52.402Z,94.33
2018-09-09T02:45:22.062Z,94.12
2018-09-09T02:47:51.344Z,94.19
2018-09-09T02:50:20.683Z,95.04
2018-09-09T02:52:50.057Z,94.83
2018-09-09T02:55:19.254Z,94.85
2018-09-09T02:57:48.341Z,94.84
2018-09-09T03:00:17.514Z,94.59
2018-09-09T03:02:46.925Z,94.80
2018-09-09T03:05:15.943Z,94.37
2018-09-09T03:07:44.919Z,93.94
2018-09-09T03:10:14.431Z,94.51
2018-09-09T03:12:44.001Z,94.43
2018-09-09T03:15:13.710Z,94.82
2018-09-09T03:17:44.123Z,95.32
2018-09-09T03:20:13.335Z,95.44
2018-09-09T03:22:42.546Z,94.73
2018-09-09T03:25:11.727Z,95.03
2018-09-09T03:27:40.739Z,94.67
2018-09-09T03:30:09.707Z,94.24
2018-09-09T03:32:39.603Z,94.01
2018-09-09T03:35:08.503Z,95.34
2018-09-09T03:37:37.590Z,95.64
2018-09-09T03:40:07.246Z,96.18
2018-09-09T03:42:36.783Z,96.24
2018-09-09T03:45:06.556Z,95.96
2018-09-09T03:47:35.794Z,95.98
2018-09-09T03:50:05.127Z,95.91
2018-09-09T03:52:34.208Z,95.79
2018-09-09T03:55:04.557Z,95.48
2018-09-09T03:57:34.899Z,95.65
2018-09-09T04:00:04.140Z,94.96
2018-09-09T04:02:34.030Z,94.96
2018-09-09T04:05:03.157Z,94.86
2018-09-09T04:07:32.675Z,93.90
2018-09-09T04:10:03.016Z,94.33
2018-09-09T04:12:32.459Z,94.73
2018-09-09T04:15:01.555Z,94.62
2018-09-09T04:17:31.709Z,94.53
2018-09-09T04:20:01.819Z,94.37
2018-09-09T04:22:30.903Z,94.39
2018-09-09T04:25:00.176Z,93.92
2018-09-09T04:27:29.301Z,92.84
2018-09-09T04:29:58.340Z,92.90
2018-09-09T04:32:27.898Z,93.14
2018-09-09T04:34:57.389Z,92.60
2018-09-09T04:37:26.906Z,92.33
2018-09-09T04:39:56.286Z,92.30
2018-09-09T04:42:25.674Z,91.91
2018-09-09T04:44:54.624Z,92.07
2018-09-09T04:47:23.693Z,93.48
2018-09-09T04:49:52.801Z,93.13
2018-09-09T04:52:22.270Z,91.38
2018-09-09T04:54:52.188Z,91.59
2018-09-09T04:57:21.990Z,91.33
2018-09-09T04:59:51.226Z,91.89
2018-09-09T05:02:20.299Z,92.26
2018-09-09T05:04:49.430Z,92.71
2018-09-09T05:07:18.563Z,92.96
2018-09-09T05:09:48.030Z,93.22
2018-09-09T05:12:17.095Z,93.07
2018-09-09T05:14:46.068Z,93.56
2018-09-09T05:17:15.484Z,94.04
2018-09-09T05:19:44.924Z,93.89
2018-09-09T05:22:14.083Z,93.70
2018-09-09T05:24:43.464Z,94.34
2018-09-09T05:27:13.066Z,94.40
2018-09-09T05:29:42.442Z,94.45
2018-09-09T05:32:11.511Z,93.49
2018-09-09T05:34:41.033Z,93.58
2018-09-09T05:37:10.680Z,93.55
2018-09-09T05:39:39.961Z,93.91
2018-09-09T05:42:09.145Z,94.21
2018-09-09T05:44:38.252Z,94.29
2018-09-09T05:47:07.911Z,94.05
2018-09-09T05:49:37.287Z,93.72
2018-09-09T05:52:06.270Z,93.48
2018-09-09T05:54:35.407Z,92.96
2018-09-09T05:57:04.401Z,93.43
2018-09-09T05:59:33.578Z,93.28
2018-09-09T06:02:02.756Z,92.33
2018-09-09T06:04:31.979Z,91.64
2018-09-09T06:07:01.570Z,91.60
2018-09-09T06:09:30.934Z,91.91
2018-09-09T06:12:00.099Z,91.48
2018-09-09T06:14:29.187Z,92.02
2018-09-09T06:16:58.337Z,91.98
2018-09-09T06:19:27.989Z,91.71
2018-09-09T06:21:57.083Z,91.70
2018-09-09T06:24:26.251Z,91.18
2018-09-09T06:26:55.534Z,91.44
2018-09-09T06:29:24.802Z,91.04
2018-09-09T06:31:53.932Z,90.42
2018-09-09T06:34:23.018Z,90.27
2018-09-09T06:36:52.278Z,90.39
2018-09-09T06:39:21.800Z,90.47
2018-09-09T06:41:51.083Z,89.02
2018-09-09T06:44:20.245Z,89.29
2018-09-09T06:46:49.566Z,89.65
2018-09-09T06:49:18.789Z,88.86
2018-09-09T06:51:48.724Z,88.18
2018-09-09T06:54:18.268Z,87.40
2018-09-09T06:56:48.521Z,86.85
2018-09-09T06:59:17.659Z,87.62
2018-09-09T07:01:47.350Z,88.19
2018-09-09T07:04:16.823Z,87.67
2018-09-09T07:06:46.083Z,87.06
2018-09-09T07:09:15.323Z,86.28
2018-09-09T07:11:44.641Z,85.71
2018-09-09T07:14:13.864Z,86.02
2018-09-09T07:16:43.325Z,86.37
2018-09-09T07:19:12.774Z,85.62
2018-09-09T07:21:41.934Z,85.45
2018-09-09T07:24:11.075Z,84.52
2018-09-09T07:26:40.134Z,84.23
2018-09-09T07:29:09.203Z,85.16
2018-09-09T07:31:38.347Z,85.04
2018-09-09T07:34:07.843Z,83.02
2018-09-09T07:36:37.119Z,83.86
2018-09-09T07:39:07.456Z,83.82
2018-09-09T07:41:37.375Z,83.02
2018-09-09T07:44:06.667Z,82.65
2018-09-09T07:46:35.792Z,82.77
2018-09-09T07:49:05.289Z,82.92
2018-09-09T07:51:34.831Z,83.59
2018-09-09T07:54:04.091Z,83.41
2018-09-09T07:56:33.415Z,81.38
2018-09-09T07:59:02.471Z,79.56
2018-09-09T08:01:31.571Z,79.40
2018-09-09T08:04:00.667Z,77.87
2018-09-09T08:06:29.757Z,77.67
2018-09-09T08:08:58.874Z,78.68
2018-09-09T08:11:33.297Z,77.32
2018-09-09T08:14:02.381Z,76.28
2018-09-09T08:16:32.429Z,73.13
2018-09-09T08:19:02.069Z,74.99
2018-09-09T08:21:31.794Z,72.18
2018-09-09T08:24:01.047Z,71.92
2018-09-09T08:26:30.319Z,71.12
2018-09-09T08:28:59.654Z,67.30
2018-09-09T08:31:28.910Z,62.57
2018-09-09T08:33:57.986Z,61.30
2018-09-09T08:36:27.067Z,58.44
2018-09-09T08:38:56.291Z,58.02
2018-09-09T08:41:25.667Z,56.82
2018-09-09T08:43:55.238Z,57.12
2018-09-09T08:46:24.271Z,56.52
2018-09-09T08:48:53.407Z,59.36
2018-09-09T08:51:22.463Z,59.32
2018-09-09T08:53:52.021Z,59.65
2018-09-09T08:56:21.083Z,59.73
2018-09-09T08:58:50.598Z,60.14
2018-09-09T09:01:19.919Z,58.81
2018-09-09T09:03:48.991Z,56.74
2018-09-09T09:06:18.482Z,58.96
2018-09-09T09:08:47.622Z,58.02
2018-09-09T09:11:17.095Z,56.17
2018-09-09T09:13:46.151Z,56.25
2018-09-09T09:16:15.258Z,56.37
2018-09-09T09:18:44.292Z,55.96
2018-09-09T09:21:13.501Z,56.03
2018-09-09T09:23:43.178Z,55.31
2018-09-09T09:26:12.282Z,55.04
2018-09-09T09:28:41.189Z,53.02
2018-09-09T09:31:10.298Z,50.89
2018-09-09T09:33:39.590Z,54.68
2018-09-09T09:36:08.693Z,55.14
2018-09-09T09:38:37.609Z,56.58
2018-09-09T09:41:07.254Z,55.15
2018-09-09T09:43:36.551Z,54.87
2018-09-09T09:46:05.725Z,53.58
2018-09-09T09:48:34.931Z,55.01
2018-09-09T09:51:04.480Z,54.52
2018-09-09T09:53:33.472Z,57.03
2018-09-09T09:56:03.077Z,56.70
2018-09-09T09:58:32.137Z,56.72
2018-09-09T10:01:02.530Z,54.48
2018-09-09T10:03:32.241Z,52.31
2018-09-09T10:06:01.580Z,50.57
2018-09-09T10:08:30.779Z,45.54
2018-09-09T10:10:59.969Z,42.35
2018-09-09T10:13:29.431Z,46.39
2018-09-09T10:15:58.346Z,47.63
2018-09-09T10:18:27.587Z,48.60
2018-09-09T10:20:56.699Z,43.89
2018-09-09T10:23:26.811Z,40.33
2018-09-09T10:25:56.142Z,41.46
2018-09-09T10:28:25.399Z,49.41
2018-09-09T10:30:54.486Z,46.19
2018-09-09T10:33:23.579Z,49.74
2018-09-09T10:35:52.844Z,49.67
2018-09-09T10:38:22.051Z,46.15
2018-09-09T10:40:51.546Z,46.66
2018-09-09T10:43:20.656Z,47.40
2018-09-09T10:45:49.858Z,47.08
2018-09-09T10:48:18.995Z,48.20
2018-09-09T10:50:48.090Z,47.87
2018-09-09T10:53:17.204Z,44.98
2018-09-09T10:55:46.299Z,47.32
2018-09-09T10:58:15.770Z,48.51
2018-09-09T11:00:45.238Z,48.12
2018-09-09T11:03:14.234Z,48.08
2018-09-09T11:05:43.621Z,49.00
2018-09-09T11:08:15.974Z,49.20
2018-09-09T11:10:45.667Z,47.38
2018-09-09T11:13:15.692Z,45.18
2018-09-09T11:15:45.398Z,45.63
2018-09-09T11:18:14.629Z,43.18
2018-09-09T11:20:44.405Z,43.15
2018-09-09T11:23:13.679Z,43.26
2018-09-09T11:25:42.789Z,44.40
2018-09-09T11:28:12.262Z,41.98
2018-09-09T11:30:41.579Z,42.60
2018-09-09T11:33:11.270Z,44.61
2018-09-09T11:35:40.444Z,43.35
2018-09-09T11:38:09.498Z,43.50
2018-09-09T11:40:39.064Z,43.96
2018-09-09T11:43:08.322Z,41.79
2018-09-09T11:45:37.796Z,41.09
2018-09-09T11:48:06.893Z,41.26
2018-09-09T11:50:35.886Z,38.59
2018-09-09T11:53:05.345Z,35.98
2018-09-09T11:55:34.784Z,37.26
2018-09-09T11:58:04.144Z,38.01
2018-09-09T12:00:33.607Z,37.08
2018-09-09T12:03:03.137Z,33.90
2018-09-09T12:05:32.398Z,35.38
2018-09-09T12:08:01.547Z,32.82
2018-09-09T12:10:30.784Z,33.42
2018-09-09T12:13:00.075Z,32.91
2018-09-09T12:15:29.011Z,30.72
2018-09-09T12:17:58.286Z,28.78
2018-09-09T12:20:27.379Z,29.45
2018-09-09T12:22:56.571Z,32.10
2018-09-09T12:25:25.814Z,31.39
2018-09-09T12:27:55.050Z,29.52
2018-09-09T12:30:24.058Z,30.46
2018-09-09T12:32:53.243Z,32.84
2018-09-09T12:35:22.358Z,33.89
2018-09-09T12:37:51.382Z,34.55
2018-09-09T12:40:20.270Z,35.16
2018-09-09T12:42:53.398Z,37.69
2018-09-09T12:45:27.859Z,38.35
2018-09-09T12:48:02.262Z,38.33
2018-09-09T12:50:32.359Z,38.43
2018-09-09T12:53:01.589Z,38.48
2018-09-09T12:55:31.099Z,38.25
2018-09-09T12:58:00.198Z,37.13
2018-09-09T13:00:29.419Z,37.93
2018-09-09T13:02:58.773Z,37.15
2018-09-09T13:05:27.927Z,37.86
2018-09-09T13:07:57.199Z,38.93
2018-09-09T13:10:26.698Z,38.40
2018-09-09T13:13:00.854Z,39.63
2018-09-09T13:15:30.414Z,37.58
2018-09-09T13:17:59.756Z,38.97
2018-09-09T13:20:29.199Z,38.77
2018-09-09T13:22:58.516Z,38.49
2018-09-09T13:25:27.655Z,37.68
2018-09-09T13:27:56.925Z,37.19
2018-09-09T13:30:25.872Z,37.25
2018-09-09T13:32:55.120Z,37.55
2018-09-09T13:35:24.192Z,38.49
2018-09-09T13:37:53.927Z,38.57
2018-09-09T13:40:24.074Z,37.85
2018-09-09T13:42:53.608Z,37.33
2018-09-09T13:45:23.262Z,37.83
2018-09-09T13:47:52.214Z,37.83
2018-09-09T13:50:21.635Z,38.92
2018-09-09T13:52:50.735Z,38.71
2018-09-09T13:55:19.821Z,37.99
2018-09-09T13:57:50.010Z,37.90
2018-09-09T14:00:19.306Z,37.38
2018-09-09T14:02:48.563Z,37.48
2018-09-09T14:05:18.043Z,38.08
2018-09-09T14:07:47.156Z,38.04
2018-09-09T14:10:16.412Z,39.26
2018-09-09T14:12:46.061Z,38.81
2018-09-09T14:15:17.993Z,38.88
2018-09-09T14:17:49.469Z,37.90
2018-09-09T14:20:19.473Z,38.16
2018-09-09T14:22:49.285Z,39.84
2018-09-09T14:25:18.789Z,39.58
2018-09-09T14:27:48.965Z,39.38
2018-09-09T14:30:18.231Z,39.99
2018-09-09T14:32:49.222Z,40.59
2018-09-09T14:35:19.735Z,39.54
2018-09-09T14:37:50.619Z,39.29
2018-09-09T14:40:20.212Z,39.00
2018-09-09T14:42:50.614Z,39.74
2018-09-09T14:45:20.572Z,40.00
2018-09-09T14:47:49.628Z,39.95
2018-09-09T14:50:18.579Z,40.78
2018-09-09T14:52:47.641Z,41.14
2018-09-09T14:55:16.967Z,41.40
2018-09-09T14:57:46.255Z,41.02
2018-09-09T15:00:15.988Z,40.89
2018-09-09T15:02:44.934Z,40.05
2018-09-09T15:05:14.188Z,40.77
2018-09-09T15:07:44.708Z,41.87
2018-09-09T15:10:14.387Z,41.14
2018-09-09T15:12:43.346Z,40.84
2018-09-09T15:15:12.579Z,41.05
2018-09-09T15:17:41.687Z,40.88
2018-09-09T15:20:10.814Z,41.25
2018-09-09T15:22:39.946Z,41.86
2018-09-09T15:25:09.178Z,41.98
2018-09-09T15:27:38.472Z,42.12
2018-09-09T15:30:07.493Z,41.09
2018-09-09T15:32:36.662Z,41.24
2018-09-09T15:35:06.743Z,42.05
2018-09-09T15:37:35.886Z,41.71
2018-09-09T15:40:05.214Z,42.33
2018-09-09T15:42:35.325Z,42.85
2018-09-09T15:45:04.465Z,42.54
2018-09-09T15:47:33.422Z,43.18
2018-09-09T15:50:02.592Z,43.05
2018-09-09T15:52:32.045Z,43.39
2018-09-09T15:55:01.177Z,43.29
2018-09-09T15:57:32.390Z,42.74
2018-09-09T16:00:04.925Z,43.04
2018-09-09T16:02:35.561Z,43.57
2018-09-09T16:05:06.051Z,43.68
2018-09-09T16:07:35.347Z,44.49
2018-09-09T16:10:04.693Z,44.31
2018-09-09T16:12:34.677Z,44.08
2018-09-09T16:15:04.426Z,44.30
2018-09-09T16:17:34.745Z,45.59
2018-09-09T16:20:04.976Z,46.23
2018-09-09T16:22:36.237Z,45.68
2018-09-09T16:25:07.205Z,45.06
2018-09-09T16:27:37.936Z,44.50
2018-09-09T16:30:08.633Z,45.28
2018-09-09T16:32:40.331Z,45.47
2018-09-09T16:35:10.549Z,45.94
2018-09-09T16:37:40.578Z,46.74
2018-09-09T16:40:10.641Z,45.20
2018-09-09T16:42:40.760Z,46.51
2018-09-09T16:45:11.010Z,47.67
2018-09-09T16:47:41.800Z,46.80
2018-09-09T16:50:13.267Z,46.90
2018-09-09T16:52:44.109Z,47.76
2018-09-09T16:55:13.275Z,48.75
2018-09-09T16:57:42.595Z,48.84
2018-09-09T17:00:11.665Z,49.16
2018-09-09T17:02:40.840Z,49.93
2018-09-09T17:05:10.271Z,49.46
2018-09-09T17:07:39.654Z,49.27
2018-09-09T17:10:08.859Z,51.46
2018-09-09T17:12:38.824Z,49.80
2018-09-09T17:15:09.576Z,50.96
2018-09-09T17:17:41.550Z,50.83
2018-09-09T17:20:11.356Z,49.46
2018-09-09T17:22:41.179Z,51.85
2018-09-09T17:25:11.268Z,50.32
2018-09-09T17:27:40.920Z,50.93
2018-09-09T17:30:10.065Z,51.52
2018-09-09T17:32:39.890Z,51.24
2018-09-09T17:35:09.385Z,52.04
2018-09-09T17:37:38.413Z,51.63
2018-09-09T17:40:08.119Z,53.11
2018-09-09T17:42:37.770Z,51.99
2018-09-09T17:45:08.716Z,52.03
2018-09-09T17:47:38.619Z,51.92
2018-09-09T17:50:08.478Z,51.87
2018-09-09T17:52:37.440Z,52.92
2018-09-09T17:55:06.968Z,52.34
2018-09-09T17:57:36.417Z,52.49
2018-09-09T18:00:09.269Z,54.01
2018-09-09T18:02:38.507Z,54.55
2018-09-09T18:05:08.361Z,53.84
2018-09-09T18:07:37.264Z,55.34
2018-09-09T18:10:07.094Z,56.86
2018-09-09T18:12:36.558Z,57.06
2018-09-09T18:15:06.309Z,56.99
2018-09-09T18:17:35.735Z,57.43
2018-09-09T18:20:05.137Z,56.93
2018-09-09T18:22:34.320Z,58.00
2018-09-09T18:25:03.321Z,57.39
2018-09-09T18:27:32.517Z,57.89
2018-09-09T18:30:01.605Z,58.00
2018-09-09T18:32:30.552Z,58.83
2018-09-09T18:35:00.162Z,58.79
2018-09-09T18:37:29.343Z,57.74
2018-09-09T18:39:58.401Z,58.04
2018-09-09T18:42:27.526Z,58.92
2018-09-09T18:44:57.017Z,59.83
2018-09-09T18:47:26.307Z,60.79
2018-09-09T18:49:55.403Z,60.98
2018-09-09T18:52:24.557Z,60.75
2018-09-09T18:54:54.485Z,60.68
2018-09-09T18:57:23.448Z,61.06
2018-09-09T18:59:53.476Z,61.22
2018-09-09T19:02:22.571Z,59.74
2018-09-09T19:04:52.022Z,58.99
2018-09-09T19:07:20.942Z,61.21
2018-09-09T19:09:50.001Z,59.83
2018-09-09T19:12:19.129Z,60.00
2018-09-09T19:14:48.966Z,59.83
2018-09-09T19:17:18.146Z,59.56
2018-09-09T19:19:47.634Z,59.42
2018-09-09T19:22:16.926Z,59.12
2018-09-09T19:24:47.026Z,59.17
2018-09-09T19:27:16.253Z,59.48
2018-09-09T19:29:45.712Z,60.00
2018-09-09T19:32:14.972Z,60.50
2018-09-09T19:34:44.243Z,60.44
2018-09-09T19:37:13.367Z,61.62
2018-09-09T19:39:42.718Z,61.61
2018-09-09T19:42:12.166Z,62.53
2018-09-09T19:44:41.270Z,63.64
2018-09-09T19:47:10.575Z,64.10
2018-09-09T19:49:39.645Z,64.60
2018-09-09T19:52:08.970Z,66.36
2018-09-09T19:54:38.274Z,68.03
2018-09-09T19:57:07.533Z,70.04
2018-09-09T19:59:37.075Z,69.90
2018-09-09T20:02:06.351Z,70.54
2018-09-09T20:04:35.705Z,71.37
2018-09-09T20:07:04.612Z,71.44
2018-09-09T20:09:33.883Z,71.22
2018-09-09T20:12:03.139Z,72.58
2018-09-09T20:14:32.417Z,72.68
2018-09-09T20:17:02.155Z,74.00
2018-09-09T20:19:31.250Z,73.89
2018-09-09T20:22:00.340Z,74.52
2018-09-09T20:24:29.811Z,75.24
2018-09-09T20:26:59.155Z,74.92
2018-09-09T20:29:28.634Z,74.87
2018-09-09T20:31:57.785Z,74.48
2018-09-09T20:34:27.053Z,75.26
2018-09-09T20:36:56.128Z,75.32
2018-09-09T20:39:25.221Z,76.42
2018-09-09T20:41:54.323Z,77.26
2018-09-09T20:44:24.030Z,77.84
2018-09-09T20:46:53.105Z,78.24
2018-09-09T20:49:22.242Z,78.65
2018-09-09T20:51:51.334Z,79.19
2018-09-09T20:54:20.414Z,78.62
2018-09-09T20:56:49.547Z,79.36
2018-09-09T20:59:19.551Z,79.18
2018-09-09T21:01:48.694Z,78.99
2018-09-09T21:04:17.813Z,79.92
2018-09-09T21:06:46.924Z,80.53
2018-09-09T21:09:15.926Z,79.94
2018-09-09T21:11:45.146Z,80.16
2018-09-09T21:14:14.741Z,80.50
2018-09-09T21:16:43.966Z,81.13
2018-09-09T21:19:12.991Z,81.07
2018-09-09T21:21:42.083Z,81.92
2018-09-09T21:24:11.352Z,82.17
2018-09-09T21:26:40.495Z,82.71
2018-09-09T21:29:10.012Z,82.52
2018-09-09T21:31:39.464Z,84.41
2018-09-09T21:34:08.403Z,83.38
2018-09-09T21:36:37.488Z,83.18
2018-09-09T21:39:08.902Z,83.29
2018-09-09T21:41:39.024Z,84.43
2018-09-09T21:44:08.644Z,84.48
2018-09-09T21:46:38.172Z,84.70
2018-09-09T21:49:07.903Z,85.58
2018-09-09T21:51:37.201Z,85.41
2018-09-09T21:54:06.751Z,85.23
2018-09-09T21:56:36.855Z,85.84
2018-09-09T21:59:06.266Z,86.00
2018-09-09T22:01:40.404Z,86.90
2018-09-09T22:04:09.606Z,87.33
2018-09-09T22:06:38.706Z,87.30
2018-09-09T22:09:09.925Z,87.72
2018-09-09T22:11:39.651Z,87.07
2018-09-09T22:14:08.975Z,86.75
2018-09-09T22:16:38.245Z,87.17
2018-09-09T22:19:08.178Z,87.77
2018-09-09T22:21:37.372Z,87.35
2018-09-09T22:24:06.574Z,87.21
2018-09-09T22:26:35.829Z,87.44
2018-09-09T22:29:05.099Z,87.38
2018-09-09T22:31:34.438Z,86.90
2018-09-09T22:34:03.711Z,85.36
2018-09-09T22:36:32.991Z,83.89
2018-09-09T22:39:01.912Z,84.30
2018-09-09T22:41:31.826Z,84.16
2018-09-09T22:44:01.530Z,84.18
2018-09-09T22:46:30.799Z,83.69
2018-09-09T22:48:59.897Z,82.83
2018-09-09T22:51:28.975Z,83.67
2018-09-09T22:53:58.090Z,83.06
2018-09-09T22:56:27.174Z,82.43
2018-09-09T22:58:56.623Z,82.86
2018-09-09T23:01:25.778Z,82.87
2018-09-09T23:03:55.268Z,83.27
2018-09-09T23:06:25.385Z,83.99
2018-09-09T23:08:54.543Z,84.26
2018-09-09T23:11:23.977Z,84.51
2018-09-09T23:13:53.105Z,84.58
2018-09-09T23:16:22.175Z,84.26
2018-09-09T23:18:51.806Z,85.61
2018-09-09T23:21:21.253Z,85.01
2018-09-09T23:23:50.570Z,84.42
2018-09-09T23:26:19.608Z,85.27
2018-09-09T23:28:49.467Z,84.89
2018-09-09T23:31:18.609Z,85.83
2018-09-09T23:33:47.725Z,85.68
2018-09-09T23:36:17.363Z,85.78
2018-09-09T23:38:46.514Z,86.21
2018-09-09T23:41:15.754Z,85.76
2018-09-09T23:43:44.911Z,85.87
2018-09-09T23:46:13.925Z,86.00
2018-09-09T23:48:43.423Z,85.97
2018-09-09T23:51:12.419Z,87.31
2018-09-09T23:53:41.690Z,86.89
2018-09-09T23:56:10.802Z,86.94
2018-09-09T23:58:40.317Z,86.86
